createdAt,value
2023-01-11T00:01:17.092Z,4.98
2023-01-11T00:03:18.300Z,4.91
2023-01-11T00:05:19.624Z,4.9
2023-01-11T00:07:21.191Z,4.92
2023-01-11T00:09:22.952Z,4.92
2023-01-11T00:11:24.931Z,4.97
2023-01-11T00:13:26.319Z,5
2023-01-11T00:15:27.401Z,4.98
2023-01-11T00:17:29.148Z,4.99
2023-01-11T00:19:30.342Z,4.99
2023-01-11T00:21:32.342Z,5
2023-01-11T00:23:34.075Z,4.99
2023-01-11T00:25:35.350Z,5
2023-01-11T00:27:37.157Z,5.03
2023-01-11T00:29:38.794Z,5.01
2023-01-11T00:31:40.669Z,5.04
2023-01-11T00:33:42.623Z,5
2023-01-11T00:35:43.629Z,5.01
2023-01-11T00:37:44.705Z,5.02
2023-01-11T00:39:46.586Z,5.02
2023-01-11T00:41:47.598Z,5.03
2023-01-11T00:43:49.266Z,5.02
2023-01-11T00:45:50.969Z,5.02
2023-01-11T00:47:52.473Z,4.97
2023-01-11T00:49:53.532Z,4.94
2023-01-11T00:51:55.382Z,4.94
2023-01-11T00:53:56.834Z,4.92
2023-01-11T00:55:57.909Z,4.91
2023-01-11T00:57:59.551Z,5.02
2023-01-11T01:00:00.760Z,5.05
2023-01-11T01:02:02.427Z,5.05
2023-01-11T01:04:04.018Z,5.18
2023-01-11T01:06:05.401Z,5.2
2023-01-11T01:08:07.324Z,5.2
2023-01-11T01:10:09.231Z,5.17
2023-01-11T01:12:10.252Z,5.29
2023-01-11T01:14:12.092Z,5.26
2023-01-11T01:16:13.491Z,5.29
2023-01-11T01:18:14.806Z,5.3
2023-01-11T01:20:15.849Z,5.37
2023-01-11T01:22:16.853Z,5.39
2023-01-11T01:24:17.865Z,5.37
2023-01-11T01:26:19.167Z,5.35
2023-01-11T01:28:20.534Z,5.4
2023-01-11T01:30:21.823Z,5.37
2023-01-11T01:32:22.939Z,5.43
2023-01-11T01:34:24.785Z,5.41
2023-01-11T01:36:25.865Z,5.39
2023-01-11T01:38:27.078Z,5.37
2023-01-11T01:40:28.978Z,5.39
2023-01-11T01:42:30.688Z,5.49
2023-01-11T01:44:32.235Z,5.5
2023-01-11T01:46:33.608Z,5.49
2023-01-11T01:48:35.144Z,5.52
2023-01-11T01:50:37.009Z,5.5
2023-01-11T01:52:38.762Z,5.46
2023-01-11T01:54:40.449Z,5.46
2023-01-11T01:56:41.711Z,5.52
2023-01-11T01:58:42.970Z,5.52
2023-01-11T02:02:55.205Z,5.49
2023-01-11T02:04:47.720Z,5.53
2023-01-11T02:06:49.632Z,5.54
2023-01-11T02:08:50.638Z,5.59
2023-01-11T02:10:52.450Z,5.64
2023-01-11T02:12:54.331Z,5.63
2023-01-11T02:14:55.744Z,5.65
2023-01-11T02:16:57.132Z,5.67
2023-01-11T02:18:58.783Z,5.7
2023-01-11T02:21:00.185Z,5.71
2023-01-11T02:23:01.540Z,5.68
2023-01-11T02:25:03.376Z,5.74
2023-01-11T02:27:04.995Z,5.71
2023-01-11T02:29:06.466Z,5.73
2023-01-11T02:31:07.477Z,5.77
2023-01-11T02:33:08.595Z,5.82
2023-01-11T02:35:09.638Z,5.83
2023-01-11T02:37:10.773Z,5.84
2023-01-11T02:39:12.693Z,5.94
2023-01-11T02:41:13.886Z,5.9
2023-01-11T02:43:15.437Z,5.93
2023-01-11T02:45:17.043Z,5.96
2023-01-11T02:47:18.912Z,5.95
2023-01-11T02:49:20.083Z,5.9
2023-01-11T02:51:21.742Z,5.98
2023-01-11T02:53:23.609Z,6
2023-01-11T02:55:25.271Z,6.05
2023-01-11T02:57:26.486Z,6.01
2023-01-11T02:59:27.922Z,6.03
2023-01-11T03:01:29.526Z,6.09
2023-01-11T03:03:31.062Z,6.08
2023-01-11T03:05:32.165Z,6.07
2023-01-11T03:07:33.697Z,6.08
2023-01-11T03:09:34.897Z,6.08
2023-01-11T03:11:36.826Z,6.13
2023-01-11T03:13:38.105Z,6.14
2023-01-11T03:15:39.629Z,6.13
2023-01-11T03:17:40.863Z,6.15
2023-01-11T03:19:41.894Z,6.2
2023-01-11T03:21:42.860Z,6.17
2023-01-11T03:23:43.880Z,6.21
2023-01-11T03:25:45.629Z,6.24
2023-01-11T03:27:47.177Z,6.23
2023-01-11T03:29:48.573Z,6.23
2023-01-11T03:31:50.311Z,6.25
2023-01-11T03:33:52.031Z,6.2
2023-01-11T03:35:53.020Z,6.22
2023-01-11T03:37:54.171Z,6.22
2023-01-11T03:39:55.631Z,6.21
2023-01-11T03:41:57.174Z,6.23
2023-01-11T03:43:58.893Z,6.22
2023-01-11T03:46:00.690Z,6.2
2023-01-11T03:48:02.036Z,6.21
2023-01-11T03:50:03.992Z,6.21
2023-01-11T03:52:05.530Z,6.25
2023-01-11T03:54:07.204Z,6.28
2023-01-11T03:56:08.267Z,6.31
2023-01-11T03:58:09.268Z,6.36
2023-01-11T04:00:10.589Z,6.37
2023-01-11T04:02:12.524Z,6.4
2023-01-11T04:04:13.915Z,6.45
2023-01-11T04:06:15.443Z,6.46
2023-01-11T04:08:17.102Z,6.48
2023-01-11T04:10:18.112Z,6.52
2023-01-11T04:12:19.831Z,6.63
2023-01-11T04:14:21.398Z,6.61
2023-01-11T04:16:23.361Z,6.6
2023-01-11T04:18:25.260Z,6.58
2023-01-11T04:20:27.171Z,6.62
2023-01-11T04:22:28.333Z,6.59
2023-01-11T04:24:29.347Z,6.7
2023-01-11T04:26:30.697Z,6.75
2023-01-11T04:28:32.616Z,6.81
2023-01-11T04:30:33.596Z,6.78
2023-01-11T04:32:35.146Z,6.79
2023-01-11T04:34:36.152Z,6.79
2023-01-11T04:36:38.076Z,6.69
2023-01-11T04:38:39.320Z,6.72
2023-01-11T04:40:40.820Z,6.71
2023-01-11T04:42:42.151Z,6.8
2023-01-11T04:43:25.987Z,6.78
2023-01-11T04:45:27.925Z,6.75
2023-01-11T04:47:29.749Z,6.77
2023-01-11T04:49:31.279Z,6.68
2023-01-11T04:51:32.835Z,6.58
2023-01-11T04:53:34.628Z,6.56
2023-01-11T04:55:36.408Z,6.51
2023-01-11T04:57:37.759Z,6.56
2023-01-11T04:59:39.168Z,6.56
2023-01-11T05:03:42.114Z,6.6
2023-01-11T05:05:43.912Z,6.62
2023-01-11T05:07:45.038Z,6.56
2023-01-11T05:09:46.350Z,6.58
2023-01-11T05:11:47.335Z,6.57
2023-01-11T05:13:49.065Z,6.62
2023-01-11T05:15:50.030Z,6.65
2023-01-11T05:17:51.608Z,6.7
2023-01-11T05:19:53.324Z,6.69
2023-01-11T05:21:54.323Z,6.76
2023-01-11T05:23:55.452Z,6.76
2023-01-11T05:25:56.686Z,6.78
2023-01-11T05:27:58.151Z,6.8
2023-01-11T05:29:59.918Z,6.81
2023-01-11T05:32:01.473Z,6.87
2023-01-11T05:34:02.999Z,6.87
2023-01-11T05:36:04.132Z,6.92
2023-01-11T05:38:06.043Z,7.03
2023-01-11T05:40:07.479Z,7.08
2023-01-11T05:42:09.352Z,7.13
2023-01-11T05:44:10.522Z,7.25
2023-01-11T05:46:11.773Z,7.28
2023-01-11T05:48:13.027Z,7.29
2023-01-11T05:50:14.247Z,7.31
2023-01-11T05:52:16.080Z,7.35
2023-01-11T05:54:17.781Z,7.39
2023-01-11T05:56:18.778Z,7.36
2023-01-11T05:58:20.491Z,7.34
2023-01-11T06:00:21.659Z,7.35
2023-01-11T06:02:22.670Z,7.38
2023-01-11T06:04:24.096Z,7.41
2023-01-11T06:06:25.160Z,7.35
2023-01-11T06:08:26.121Z,7.42
2023-01-11T06:10:27.556Z,7.45
2023-01-11T06:12:29.127Z,7.42
2023-01-11T06:14:30.194Z,7.46
2023-01-11T06:16:31.339Z,7.47
2023-01-11T06:18:33.182Z,7.51
2023-01-11T06:20:34.398Z,7.46
2023-01-11T06:22:35.586Z,7.45
2023-01-11T06:24:36.843Z,7.42
2023-01-11T06:26:38.297Z,7.46
2023-01-11T06:28:40.205Z,7.45
2023-01-11T06:30:41.326Z,7.5
2023-01-11T06:32:42.525Z,7.56
2023-01-11T06:34:43.865Z,7.65
2023-01-11T06:36:45.443Z,7.64
2023-01-11T06:38:46.603Z,7.7
2023-01-11T06:40:47.686Z,7.66
2023-01-11T06:42:49.063Z,7.67
2023-01-11T06:44:50.084Z,7.66
2023-01-11T06:46:51.354Z,7.67
2023-01-11T06:48:52.827Z,7.72
2023-01-11T06:50:54.378Z,7.66
2023-01-11T06:52:55.410Z,7.67
2023-01-11T06:54:57.156Z,7.78
2023-01-11T06:56:59.087Z,7.79
2023-01-11T06:59:00.549Z,7.87
2023-01-11T07:01:01.768Z,7.83
2023-01-11T07:03:03.611Z,7.81
2023-01-11T07:05:05.452Z,7.87
2023-01-11T07:07:07.165Z,7.81
2023-01-11T07:09:08.814Z,7.79
2023-01-11T07:11:10.438Z,7.78
2023-01-11T07:13:11.906Z,7.83
2023-01-11T07:15:13.151Z,7.84
2023-01-11T07:17:14.986Z,7.9
2023-01-11T07:19:16.249Z,7.96
2023-01-11T07:21:17.699Z,7.93
2023-01-11T07:23:19.284Z,8.02
2023-01-11T07:27:22.366Z,8.05
2023-01-11T07:29:23.319Z,8.04
2023-01-11T07:31:24.641Z,8.01
2023-01-11T07:33:26.000Z,8.02
2023-01-11T07:35:28.852Z,8.07
2023-01-11T07:37:29.503Z,8.11
2023-01-11T07:39:42.668Z,8.1
2023-01-11T07:41:31.971Z,8.13
2023-01-11T07:43:33.697Z,8.1
2023-01-11T07:45:45.234Z,8.17
2023-01-11T07:47:36.292Z,8.21
2023-01-11T07:49:38.215Z,8.26
2023-01-11T07:51:39.961Z,8.3
2023-01-11T07:53:41.649Z,8.36
2023-01-11T07:55:42.782Z,8.37
2023-01-11T07:57:44.411Z,8.39
2023-01-11T07:59:45.825Z,8.42
2023-01-11T08:01:46.950Z,8.45
2023-01-11T08:03:48.053Z,8.43
2023-01-11T08:05:49.490Z,8.45
2023-01-11T08:07:51.234Z,8.5
2023-01-11T08:09:52.766Z,8.47
2023-01-11T08:11:54.507Z,8.56
2023-01-11T08:13:56.257Z,8.54
2023-01-11T08:15:57.908Z,8.53
2023-01-11T08:17:59.736Z,8.66
2023-01-11T08:20:01.466Z,8.64
2023-01-11T08:22:02.635Z,8.73
2023-01-11T08:24:04.360Z,8.77
2023-01-11T08:26:06.054Z,8.73
2023-01-11T08:28:07.621Z,8.77
2023-01-11T08:30:09.274Z,8.81
2023-01-11T08:32:10.761Z,8.88
2023-01-11T08:34:12.090Z,8.92
2023-01-11T08:36:13.920Z,8.94
2023-01-11T08:38:14.839Z,9.01
2023-01-11T08:40:16.379Z,9.02
2023-01-11T08:42:18.023Z,9.04
2023-01-11T08:44:33.232Z,9.06
2023-01-11T08:46:20.969Z,9.06
2023-01-11T08:48:22.397Z,9.1
2023-01-11T08:50:23.589Z,9.13
2023-01-11T08:52:25.135Z,9.21
2023-01-11T08:54:26.332Z,9.18
2023-01-11T08:56:28.043Z,9.22
2023-01-11T08:58:29.746Z,9.21
2023-01-11T09:00:31.621Z,9.17
2023-01-11T09:02:33.480Z,9.23
2023-01-11T09:04:34.467Z,9.2
2023-01-11T09:06:36.222Z,9.22
2023-01-11T09:08:37.416Z,9.2
2023-01-11T09:10:38.380Z,9.25
2023-01-11T09:12:40.221Z,9.22
2023-01-11T09:14:41.666Z,9.2
2023-01-11T09:16:42.728Z,9.2
2023-01-11T09:18:44.523Z,9.22
2023-01-11T09:20:46.021Z,9.22
2023-01-11T09:22:47.287Z,9.22
2023-01-11T09:24:48.904Z,9.21
2023-01-11T09:26:50.572Z,9.2
2023-01-11T09:28:52.216Z,9.19
2023-01-11T09:30:54.047Z,9.14
2023-01-11T09:32:55.726Z,9.11
2023-01-11T09:34:57.264Z,9.1
2023-01-11T09:36:58.704Z,9.1
2023-01-11T09:38:59.910Z,9.07
2023-01-11T09:41:01.077Z,9.05
2023-01-11T09:43:02.701Z,9.01
2023-01-11T09:45:04.381Z,9.02
2023-01-11T09:47:05.844Z,8.97
2023-01-11T09:49:07.034Z,9
2023-01-11T09:51:08.800Z,9.01
2023-01-11T09:53:10.488Z,9.04
2023-01-11T09:55:11.940Z,9.01
2023-01-11T09:57:12.999Z,9.01
2023-01-11T09:59:14.296Z,9.02
2023-01-11T10:01:15.447Z,9.05
2023-01-11T10:03:16.815Z,9.05
2023-01-11T10:05:18.670Z,9.04
2023-01-11T10:07:19.774Z,9.05
2023-01-11T10:18:25.001Z,9.17
2023-01-11T10:18:34.921Z,9.15
2023-01-11T10:19:38.481Z,9.23
2023-01-11T10:21:30.741Z,9.26
2023-01-11T10:23:32.184Z,9.27
2023-01-11T10:25:33.754Z,9.26
2023-01-11T10:27:34.840Z,9.25
2023-01-11T10:29:36.547Z,9.23
2023-01-11T10:33:39.227Z,9.19
2023-01-11T10:35:40.627Z,9.16
2023-01-11T10:37:41.990Z,9.11
2023-01-11T10:39:43.788Z,9.05
2023-01-11T10:41:45.451Z,9.06
2023-01-11T10:43:46.710Z,9.03
2023-01-11T10:45:48.548Z,9.02
2023-01-11T10:47:50.419Z,9.01
2023-01-11T10:49:51.430Z,9.01
2023-01-11T10:51:52.336Z,8.97
2023-01-11T10:53:53.399Z,8.99
2023-01-11T10:55:54.844Z,9.03
2023-01-11T10:57:59.668Z,9.03
2023-01-11T10:59:58.049Z,9.04
2023-01-11T11:01:59.861Z,9.05
2023-01-11T11:04:01.133Z,9.06
2023-01-11T11:06:02.944Z,9.15
2023-01-11T11:08:04.060Z,9.15
2023-01-11T11:10:05.191Z,9.15
2023-01-11T11:12:06.799Z,9.13
2023-01-11T11:14:08.640Z,9.12
2023-01-11T11:16:10.312Z,9.17
2023-01-11T11:18:11.322Z,9.17
2023-01-11T11:20:12.562Z,9.16
2023-01-11T11:22:13.725Z,9.15
2023-01-11T11:24:15.684Z,9.19
2023-01-11T11:26:17.515Z,9.22
2023-01-11T11:28:18.952Z,9.2
2023-01-11T11:29:10.762Z,9.22
2023-01-11T11:31:04.460Z,9.3
2023-01-11T11:33:06.375Z,9.29
2023-01-11T11:35:07.556Z,9.32
2023-01-11T11:37:08.736Z,9.38
2023-01-11T11:39:10.480Z,9.34
2023-01-11T11:41:12.404Z,9.34
2023-01-11T11:43:14.209Z,9.29
2023-01-11T11:45:15.875Z,9.34
2023-01-11T11:47:17.680Z,9.35
2023-01-11T11:49:19.322Z,9.42
2023-01-11T11:51:20.358Z,9.33
2023-01-11T11:53:22.023Z,9.36
2023-01-11T11:55:23.389Z,9.33
2023-01-11T11:57:27.353Z,9.3
2023-01-11T11:59:26.324Z,9.34
2023-01-11T12:01:27.794Z,9.33
2023-01-11T12:03:29.736Z,9.37
2023-01-11T12:05:31.403Z,9.4
2023-01-11T12:07:34.369Z,9.42
2023-01-11T12:09:33.705Z,9.41
2023-01-11T12:11:34.770Z,9.49
2023-01-11T12:13:36.624Z,9.46
2023-01-11T12:15:37.641Z,9.48
2023-01-11T12:17:39.236Z,9.49
2023-01-11T12:19:40.496Z,9.49
2023-01-11T12:21:42.015Z,9.51
2023-01-11T12:23:43.541Z,9.53
2023-01-11T12:25:45.151Z,9.5
2023-01-11T12:27:46.428Z,9.52
2023-01-11T12:29:47.496Z,9.56
2023-01-11T12:31:49.099Z,9.48
2023-01-11T12:33:50.041Z,9.5
2023-01-11T12:35:51.527Z,9.48
2023-01-11T12:37:52.742Z,9.46
2023-01-11T12:39:54.335Z,9.48
2023-01-11T12:41:56.200Z,9.41
2023-01-11T12:43:57.525Z,9.35
2023-01-11T12:45:59.020Z,9.31
2023-01-11T12:48:00.484Z,9.28
2023-01-11T12:50:02.012Z,9.28
2023-01-11T12:52:03.264Z,9.25
2023-01-11T12:54:04.762Z,9.29
2023-01-11T12:56:06.119Z,9.3
2023-01-11T12:58:07.115Z,9.29
2023-01-11T13:00:08.403Z,9.3
2023-01-11T13:02:10.296Z,9.36
2023-01-11T13:04:12.340Z,9.37
2023-01-11T13:06:13.903Z,9.34
2023-01-11T13:08:15.636Z,9.41
2023-01-11T13:10:16.918Z,9.42
2023-01-11T13:12:18.679Z,9.49
2023-01-11T13:14:22.271Z,9.53
2023-01-11T13:16:21.449Z,9.56
2023-01-11T13:18:22.989Z,9.58
2023-01-11T13:20:24.630Z,9.51
2023-01-11T13:22:26.148Z,9.55
2023-01-11T13:24:27.338Z,9.51
2023-01-11T13:26:28.404Z,9.59
2023-01-11T13:28:29.965Z,9.63
2023-01-11T13:30:31.297Z,9.66
2023-01-11T13:32:33.137Z,9.7
2023-01-11T13:34:34.263Z,9.64
2023-01-11T13:36:35.799Z,9.67
2023-01-11T13:38:36.848Z,9.62
2023-01-11T13:40:38.620Z,9.61
2023-01-11T13:42:40.414Z,9.6
2023-01-11T13:44:42.343Z,9.58
2023-01-11T13:46:44.084Z,9.58
2023-01-11T13:48:45.838Z,9.53
2023-01-11T13:50:47.676Z,9.61
2023-01-11T13:52:48.824Z,9.61
2023-01-11T13:54:49.801Z,9.66
2023-01-11T13:56:51.048Z,9.63
2023-01-11T13:58:52.051Z,9.6
2023-01-11T14:00:52.986Z,9.6
2023-01-11T14:02:54.299Z,9.65
2023-01-11T14:04:55.704Z,9.67
2023-01-11T14:06:57.107Z,9.69
2023-01-11T14:08:58.918Z,9.74
2023-01-11T14:10:59.858Z,9.69
2023-01-11T14:13:01.034Z,9.71
2023-01-11T14:15:02.712Z,9.65
2023-01-11T14:17:04.014Z,9.66
2023-01-11T14:19:05.739Z,9.64
2023-01-11T14:21:07.423Z,9.69
2023-01-11T14:23:10.692Z,9.65
2023-01-11T14:25:10.056Z,9.6
2023-01-11T14:27:11.913Z,9.64
2023-01-11T14:29:13.315Z,9.65
2023-01-11T14:31:14.395Z,9.6
2023-01-11T14:33:16.186Z,9.62
2023-01-11T14:35:17.241Z,9.63
2023-01-11T14:37:18.770Z,9.62
2023-01-11T14:39:20.322Z,9.59
2023-01-11T14:41:22.152Z,9.6
2023-01-11T14:43:23.349Z,9.53
2023-01-11T14:45:25.148Z,9.54
2023-01-11T14:47:26.446Z,9.65
2023-01-11T14:49:27.737Z,9.56
2023-01-11T14:51:33.047Z,9.54
2023-01-11T14:53:30.632Z,9.56
2023-01-11T14:55:32.019Z,9.59
2023-01-11T14:57:33.655Z,9.54
2023-01-11T14:59:35.497Z,9.56
2023-01-11T15:01:36.972Z,9.57
2023-01-11T15:03:38.324Z,9.57
2023-01-11T15:05:39.835Z,9.59
2023-01-11T15:07:41.438Z,9.51
2023-01-11T15:09:43.102Z,9.46
2023-01-11T15:11:44.596Z,9.46
2023-01-11T15:13:46.153Z,9.5
2023-01-11T15:15:47.945Z,9.43
2023-01-11T15:17:48.760Z,9.37
2023-01-11T15:19:50.420Z,9.35
2023-01-11T15:21:52.301Z,9.35
2023-01-11T15:23:53.651Z,9.3
2023-01-11T15:25:54.735Z,9.19
2023-01-11T15:27:56.427Z,9.16
2023-01-11T15:29:57.898Z,9.1
2023-01-11T15:31:59.789Z,9.14
2023-01-11T15:34:01.092Z,9.09
2023-01-11T15:36:02.895Z,9.06
2023-01-11T15:38:04.103Z,9.01
2023-01-11T15:40:05.716Z,8.99
2023-01-11T15:42:07.192Z,8.97
2023-01-11T15:44:08.916Z,8.9
2023-01-11T15:46:09.994Z,8.87
2023-01-11T15:48:10.964Z,8.95
2023-01-11T15:50:12.774Z,8.98
2023-01-11T15:52:14.380Z,8.95
2023-01-11T15:54:15.340Z,8.89
2023-01-11T15:56:16.515Z,8.82
2023-01-11T15:58:18.065Z,8.8
2023-01-11T16:00:19.907Z,8.83
2023-01-11T16:02:21.021Z,8.83
2023-01-11T16:04:22.479Z,8.79
2023-01-11T16:06:24.235Z,8.76
2023-01-11T16:08:25.739Z,8.74
2023-01-11T16:10:26.840Z,8.77
2023-01-11T16:12:28.444Z,8.8
2023-01-11T16:14:30.004Z,8.85
2023-01-11T16:16:31.752Z,8.84
2023-01-11T16:18:33.093Z,8.79
2023-01-11T16:20:34.431Z,8.82
2023-01-11T16:22:36.065Z,8.88
2023-01-11T16:24:37.516Z,8.91
2023-01-11T16:26:38.580Z,8.83
2023-01-11T16:28:39.874Z,8.86
2023-01-11T16:30:41.315Z,8.86
2023-01-11T16:32:42.650Z,8.88
2023-01-11T16:34:44.155Z,8.88
2023-01-11T16:36:45.378Z,8.83
2023-01-11T16:38:47.065Z,8.8
2023-01-11T16:40:48.903Z,8.9
2023-01-11T16:42:50.722Z,8.84
2023-01-11T16:44:52.454Z,8.91
2023-01-11T16:46:53.936Z,8.93
2023-01-11T16:48:55.749Z,8.86
2023-01-11T16:50:57.326Z,8.84
2023-01-11T16:52:59.156Z,8.91
2023-01-11T16:55:00.646Z,8.87
2023-01-11T16:57:02.059Z,8.94
2023-01-11T16:59:03.620Z,8.91
2023-01-11T17:01:04.870Z,8.94
2023-01-11T17:03:05.795Z,8.9
2023-01-11T17:05:07.029Z,8.83
2023-01-11T17:07:08.683Z,8.83
2023-01-11T17:09:16.167Z,8.77
2023-01-11T17:11:11.505Z,8.81
2023-01-11T17:13:13.326Z,8.8
2023-01-11T17:15:14.389Z,8.79
2023-01-11T17:17:15.907Z,8.8
2023-01-11T17:19:17.597Z,8.8
2023-01-11T17:21:19.128Z,8.76
2023-01-11T17:23:20.991Z,8.7
2023-01-11T17:25:22.588Z,8.67
2023-01-11T17:27:23.880Z,8.63
2023-01-11T17:29:25.332Z,8.6
2023-01-11T17:31:26.774Z,8.74
2023-01-11T17:33:28.381Z,8.64
2023-01-11T17:35:30.035Z,8.61
2023-01-11T17:37:31.740Z,8.61
2023-01-11T17:39:32.990Z,8.6
2023-01-11T17:41:34.107Z,8.6
2023-01-11T17:43:35.251Z,8.73
2023-01-11T17:45:36.936Z,8.63
2023-01-11T17:47:38.220Z,8.59
2023-01-11T17:49:39.978Z,8.66
2023-01-11T17:51:41.030Z,8.57
2023-01-11T17:53:42.203Z,8.62
2023-01-11T17:55:43.643Z,8.6
2023-01-11T17:57:45.085Z,8.54
2023-01-11T17:59:46.805Z,8.54
2023-01-11T18:01:47.814Z,8.53
2023-01-11T18:03:49.202Z,8.5
2023-01-11T18:05:50.739Z,8.5
2023-01-11T18:07:52.524Z,8.49
2023-01-11T18:09:54.561Z,8.45
2023-01-11T18:11:56.397Z,8.43
2023-01-11T18:13:57.677Z,8.45
2023-01-11T18:16:42.879Z,8.45
2023-01-11T18:18:44.288Z,8.47
2023-01-11T18:20:45.730Z,8.37
2023-01-11T18:22:47.276Z,8.39
2023-01-11T18:24:48.645Z,8.4
2023-01-11T18:26:50.197Z,8.31
2023-01-11T18:28:51.876Z,8.36
2023-01-11T18:32:55.569Z,8.3
2023-01-11T18:34:56.520Z,8.32
2023-01-11T18:36:57.766Z,8.35
2023-01-11T18:38:59.011Z,8.29
2023-01-11T18:41:00.770Z,8.33
2023-01-11T18:43:01.769Z,8.33
2023-01-11T18:45:02.970Z,8.27
2023-01-11T18:47:04.235Z,8.25
2023-01-11T18:49:05.316Z,8.25
2023-01-11T18:51:07.049Z,8.21
2023-01-11T18:53:08.151Z,8.22
2023-01-11T18:55:09.231Z,8.08
2023-01-11T18:57:10.499Z,8.05
2023-01-11T18:59:11.905Z,8.04
2023-01-11T19:01:13.443Z,8.01
2023-01-11T19:05:15.847Z,7.9
2023-01-11T19:07:17.395Z,8.01
2023-01-11T19:09:18.930Z,7.93
2023-01-11T19:11:20.605Z,7.97
2023-01-11T19:13:22.374Z,7.94
2023-01-11T19:15:23.398Z,7.85
2023-01-11T19:17:24.719Z,7.81
2023-01-11T19:19:26.106Z,7.78
2023-01-11T19:21:27.278Z,7.78
2023-01-11T19:23:28.389Z,7.71
2023-01-11T19:25:29.895Z,7.71
2023-01-11T19:27:31.394Z,7.77
2023-01-11T19:29:32.758Z,7.69
2023-01-11T19:31:34.715Z,7.68
2023-01-11T19:33:35.727Z,7.71
2023-01-11T19:35:36.763Z,7.61
2023-01-11T19:37:38.406Z,7.56
2023-01-11T19:39:40.205Z,7.57
2023-01-11T19:41:41.200Z,7.39
2023-01-11T19:43:42.678Z,7.34
2023-01-11T19:45:44.346Z,7.22
2023-01-11T19:47:46.256Z,7.15
2023-01-11T19:49:47.551Z,7.3
2023-01-11T19:51:48.656Z,7.27
2023-01-11T19:53:50.460Z,7.31
2023-01-11T19:55:52.367Z,7.27
2023-01-11T19:57:53.799Z,7.32
2023-01-11T19:59:55.299Z,7.35
2023-01-11T20:01:56.376Z,7.41
2023-01-11T20:03:58.233Z,7.49
2023-01-11T20:05:59.264Z,7.45
2023-01-11T20:08:00.536Z,7.5
2023-01-11T20:10:01.773Z,7.4
2023-01-11T20:12:03.497Z,7.25
2023-01-11T20:14:05.054Z,7.31
2023-01-11T20:16:06.410Z,7.27
2023-01-11T20:18:07.793Z,7.3
2023-01-11T20:20:08.872Z,7.35
2023-01-11T20:22:09.906Z,7.39
2023-01-11T20:24:11.353Z,7.3
2023-01-11T20:26:13.048Z,7.29
2023-01-11T20:28:14.185Z,7.29
2023-01-11T20:30:15.333Z,7.29
2023-01-11T20:32:35.369Z,7.24
2023-01-11T20:34:18.190Z,7.34
2023-01-11T20:36:20.177Z,7.26
2023-01-11T20:38:21.494Z,7.13
2023-01-11T20:40:22.782Z,7.17
2023-01-11T20:42:24.142Z,7.06
2023-01-11T20:44:25.636Z,7
2023-01-11T20:46:26.960Z,6.93
2023-01-11T20:48:27.953Z,6.98
2023-01-11T20:50:29.563Z,7.08
2023-01-11T20:52:30.981Z,6.98
2023-01-11T20:56:34.604Z,6.96
2023-01-11T20:58:35.750Z,6.9
2023-01-11T21:00:37.664Z,6.94
2023-01-11T21:02:39.493Z,6.94
2023-01-11T21:04:41.134Z,6.93
2023-01-11T21:06:42.667Z,6.91
2023-01-11T21:08:43.943Z,6.99
2023-01-11T21:10:45.497Z,6.94
2023-01-11T21:14:47.643Z,6.93
2023-01-11T21:16:49.409Z,6.95
2023-01-11T21:18:50.347Z,6.93
2023-01-11T21:20:51.573Z,7.05
2023-01-11T21:22:52.866Z,7.07
2023-01-11T21:24:54.086Z,7.17
2023-01-11T21:26:55.353Z,7.13
2023-01-11T21:28:56.666Z,7.13
2023-01-11T21:30:57.769Z,6.98
2023-01-11T21:32:58.750Z,6.96
2023-01-11T21:34:59.701Z,6.84
2023-01-11T21:37:01.477Z,6.88
2023-01-11T21:39:03.117Z,6.87
2023-01-11T21:41:04.441Z,6.84
2023-01-11T21:43:06.364Z,6.83
2023-01-11T21:45:08.056Z,6.98
2023-01-11T21:47:09.456Z,7.01
2023-01-11T21:49:11.257Z,6.95
2023-01-11T21:51:12.714Z,6.93
2023-01-11T21:53:14.681Z,6.96
2023-01-11T21:55:16.284Z,7.05
2023-01-11T21:57:17.497Z,7.08
2023-01-11T21:59:19.353Z,7.06
2023-01-11T22:01:20.360Z,7.1
2023-01-11T22:03:21.664Z,7.14
2023-01-11T22:05:23.049Z,7.11
2023-01-11T22:07:24.129Z,7.1
2023-01-11T22:09:25.831Z,7.25
2023-01-11T22:11:36.292Z,7.22
2023-01-11T22:13:28.376Z,7.06
2023-01-11T22:15:29.853Z,7.07
2023-01-11T22:17:31.084Z,7.15
2023-01-11T22:19:32.320Z,7.02
2023-01-11T22:21:33.838Z,7.06
2023-01-11T22:23:35.249Z,7.04
2023-01-11T22:25:36.478Z,7
2023-01-11T22:27:38.455Z,7.02
2023-01-11T22:29:39.709Z,7.07
2023-01-11T22:31:41.556Z,7.21
2023-01-11T22:33:43.007Z,7.09
2023-01-11T22:35:44.098Z,7.17
2023-01-11T22:37:45.322Z,7.12
2023-01-11T22:39:46.523Z,7.23
2023-01-11T22:41:48.293Z,7.29
2023-01-11T22:43:49.873Z,7.25
2023-01-11T22:45:51.118Z,7.22
2023-01-11T22:47:52.349Z,7.27
2023-01-11T22:49:53.366Z,7.22
2023-01-11T22:51:55.063Z,7.23
2023-01-11T22:53:56.418Z,7.29
2023-01-11T22:55:58.314Z,7.25
2023-01-11T22:57:59.479Z,7.28
2023-01-11T23:00:00.896Z,7.26
2023-01-11T23:02:02.783Z,7.24
2023-01-11T23:04:04.624Z,7.25
2023-01-11T23:06:05.748Z,7.19
2023-01-11T23:08:07.453Z,7.19
2023-01-11T23:10:08.634Z,7.14
2023-01-11T23:12:09.938Z,7.21
2023-01-11T23:14:11.053Z,7.26
2023-01-11T23:16:14.333Z,7.23
2023-01-11T23:20:15.338Z,7.25
2023-01-11T23:22:16.333Z,7.22
2023-01-11T23:24:17.724Z,7.2
2023-01-11T23:26:18.875Z,7.17
2023-01-11T23:28:20.667Z,7.14
2023-01-11T23:30:22.267Z,7.22
2023-01-11T23:32:23.562Z,7.18
2023-01-11T23:34:25.203Z,7.18
2023-01-11T23:36:26.397Z,7.09
2023-01-11T23:38:28.336Z,7.08
2023-01-11T23:40:29.742Z,7.07
2023-01-11T23:42:31.609Z,7.07
2023-01-11T23:44:32.836Z,7.02
2023-01-11T23:46:34.683Z,7.11
2023-01-11T23:48:35.764Z,7.14
2023-01-11T23:50:37.388Z,7.13
2023-01-11T23:52:38.417Z,7.23
2023-01-11T23:54:39.438Z,7.19
2023-01-11T23:56:41.136Z,7.13
2023-01-11T23:58:42.310Z,7.24
